Perryopolis, Pennsylvania
Current Conditions -  °F | °C
As of 11:53 PM on Thursday 30 Oct 2014 (Local Time) from KAGC Reporting Station
Overcast Overcast  
Wind Chill: 44°   Ceiling: 4700
Heat Index: 46°   Visibility: 10mi
Dew Point: 33°   Wind: 5mph
Humidity: 61%   Direction: 270°W
Pressure: 30.03"   Gusts: NA
Location:  40.09°N, 79.75°W
Report Text: KAGC 310353Z 27004KT 10SM OVC047 08/01 A3003 RMK AO2 SLP177 T00780006
Loading
Personal Weather Stations






























Interactive Weather Map
Tropical Storm Tracking
New forecast layout! Learn more

10-Day Weather Forecast

Advertisements
Track Severe Weather on mobile